Time;durP1;ratioP1;P1;durP2;ratioP2;P2;SDS_P1;SDS_P2;PMS_P1;PMS_P2;Temp;Humidity;BMP_temperature;BMP_pressure;BME280_temperature;BME280_humidity;BME280_pressure;Samples;Min_cycle;Max_cycle;Signal;HPM_P1;HPM_P2
2023/01/10 00:00:12;;;;;;;17.40;2.97;;;5.20;99.90;;;;;;5097452;28;20035;-62
2023/01/10 00:02:38;;;;;;;13.93;2.63;;;5.10;99.90;;;;;;5115574;28;20046;-62
2023/01/10 00:05:04;;;;;;;16.90;2.88;;;5.10;99.90;;;;;;5115425;28;20043;-63
2023/01/10 00:07:29;;;;;;;19.90;2.70;;;5.00;99.90;;;;;;5115416;28;20043;-62
2023/01/10 00:09:55;;;;;;;19.40;3.58;;;5.10;99.90;;;;;;5115119;28;20470;-62
2023/01/10 00:15:05;;;;;;;8.27;2.35;;;5.10;99.90;;;;;;5115490;28;20035;-62
2023/01/10 00:17:31;;;;;;;10.25;2.50;;;5.00;99.90;;;;;;5096904;28;20040;-63
2023/01/10 00:19:56;;;;;;;14.88;2.70;;;4.90;99.90;;;;;;5115186;28;20063;-62
2023/01/10 00:22:24;;;;;;;14.30;2.30;;;4.90;99.90;;;;;;5115052;28;20498;-62
2023/01/10 00:24:50;;;;;;;16.17;3.13;;;4.90;99.90;;;;;;5115001;28;20048;-62
2023/01/10 00:27:21;;;;;;;21.13;2.90;;;5.00;99.90;;;;;;5114855;28;20035;-63
2023/01/10 00:29:47;;;;;;;13.07;2.30;;;4.90;99.90;;;;;;5115102;28;20058;-63
2023/01/10 00:32:12;;;;;;;13.60;2.45;;;4.70;99.90;;;;;;5115012;28;20028;-63
2023/01/10 00:34:38;;;;;;;11.27;3.17;;;4.90;99.90;;;;;;5095790;28;20425;-63
2023/01/10 00:37:04;;;;;;;14.73;2.88;;;4.90;99.90;;;;;;5096562;28;20056;-63
2023/01/10 00:39:30;;;;;;;20.95;3.05;;;5.00;99.90;;;;;;5114707;28;20075;-62
2023/01/10 00:44:40;;;;;;;20.58;3.60;;;5.10;99.90;;;;;;5114767;28;20075;-62
2023/01/10 00:47:06;;;;;;;18.23;2.92;;;5.00;99.90;;;;;;5114609;28;20085;-63
2023/01/10 00:49:31;;;;;;;18.40;3.38;;;5.00;99.90;;;;;;5114490;28;20459;-63
2023/01/10 00:51:58;;;;;;;25.95;3.75;;;4.90;99.90;;;;;;5096120;28;20161;-62
2023/01/10 00:54:24;;;;;;;22.92;4.03;;;4.90;99.90;;;;;;5114404;28;20111;-62
2023/01/10 00:56:50;;;;;;;18.08;3.30;;;5.10;99.90;;;;;;5114499;28;20035;-62
2023/01/10 00:59:15;;;;;;;19.30;4.28;;;5.20;99.90;;;;;;5114118;28;20107;-62
2023/01/10 01:01:41;;;;;;;19.92;3.65;;;5.30;99.90;;;;;;5095655;28;20047;-62
2023/01/10 01:04:07;;;;;;;24.33;3.97;;;5.30;99.90;;;;;;5114337;28;20037;-62
2023/01/10 01:06:32;;;;;;;21.70;3.90;;;5.20;99.90;;;;;;5114536;28;20596;-62
2023/01/10 01:08:58;;;;;;;19.80;4.00;;;5.30;99.90;;;;;;5114065;28;20421;-62
2023/01/10 01:11:24;;;;;;;18.42;3.63;;;5.30;99.90;;;;;;5114001;28;20040;-62
2023/01/10 01:13:50;;;;;;;25.02;3.70;;;5.50;99.90;;;;;;5114089;28;20116;-62
2023/01/10 01:16:17;;;;;;;24.63;4.70;;;5.50;99.90;;;;;;5114101;28;20478;-62
2023/01/10 01:18:42;;;;;;;25.00;3.45;;;5.30;99.90;;;;;;5113877;28;20031;-63
2023/01/10 01:21:08;;;;;;;26.00;3.90;;;5.40;99.90;;;;;;5113918;28;20051;-63
2023/01/10 01:23:34;;;;;;;18.92;3.30;;;5.50;99.90;;;;;;5113731;28;20032;-62
2023/01/10 01:26:00;;;;;;;21.95;3.28;;;5.60;99.90;;;;;;5113950;28;20031;-62
2023/01/10 01:28:26;;;;;;;15.05;3.63;;;5.50;99.90;;;;;;5113868;28;20480;-62
2023/01/10 01:30:51;;;;;;;20.40;3.20;;;5.50;99.90;;;;;;5113691;28;20039;-62
2023/01/10 01:33:18;;;;;;;21.85;4.00;;;5.50;99.90;;;;;;5113992;28;20055;-62
2023/01/10 01:35:46;;;;;;;17.77;3.08;;;5.40;99.90;;;;;;5113583;28;20535;-63
2023/01/10 01:38:13;;;;;;;25.45;5.05;;;5.60;99.90;;;;;;5095176;28;20055;-63
2023/01/10 01:40:40;;;;;;;13.20;3.90;;;5.60;99.90;;;;;;5113622;28;20035;-63
2023/01/10 01:43:25;;;;;;;19.83;3.33;;;5.60;99.90;;;;;;5113676;28;20035;-63
2023/01/10 01:45:50;;;;;;;14.32;2.80;;;5.60;99.90;;;;;;5113405;28;20122;-63
2023/01/10 01:48:28;;;;;;;21.58;3.40;;;5.50;99.90;;;;;;5113243;28;20119;-62
2023/01/10 01:51:12;;;;;;;23.90;4.97;;;5.60;99.90;;;;;;5113453;28;20039;-63
2023/01/10 01:53:46;;;;;;;19.40;3.40;;;5.60;99.90;;;;;;5113234;28;20052;-63
2023/01/10 01:56:33;;;;;;;22.27;2.97;;;6.00;99.90;;;;;;5113306;28;20044;-62
2023/01/10 01:59:10;;;;;;;18.90;3.28;;;5.50;99.90;;;;;;5112993;28;20044;-62
2023/01/10 02:01:37;;;;;;;13.32;2.85;;;5.50;99.90;;;;;;5113180;28;20104;-63
2023/01/10 02:04:12;;;;;;;22.33;3.70;;;5.50;99.90;;;;;;5113108;28;20040;-63
2023/01/10 02:06:38;;;;;;;27.80;3.47;;;5.40;99.90;;;;;;5113127;28;20039;-63
2023/01/10 02:09:12;;;;;;;25.15;3.75;;;5.50;99.90;;;;;;5112617;28;20043;-62
2023/01/10 02:11:37;;;;;;;18.10;3.25;;;5.50;99.90;;;;;;5094722;28;20039;-62
2023/01/10 02:14:05;;;;;;;23.80;4.35;;;5.60;99.90;;;;;;5094746;28;20046;-62
2023/01/10 02:16:31;;;;;;;20.73;3.53;;;5.60;99.90;;;;;;5112738;28;20043;-62
2023/01/10 02:18:57;;;;;;;22.63;3.40;;;5.60;99.90;;;;;;5112875;28;20027;-63
2023/01/10 02:21:40;;;;;;;19.40;3.70;;;5.70;99.90;;;;;;5112673;28;20120;-63
2023/01/10 02:24:32;;;;;;;20.30;3.13;;;5.50;99.90;;;;;;5112650;28;20047;-63
2023/01/10 02:27:16;;;;;;;19.00;3.33;;;5.60;99.90;;;;;;5112740;28;20078;-62
2023/01/10 02:30:13;;;;;;;19.02;3.30;;;5.60;99.90;;;;;;5112656;28;20035;-63
2023/01/10 02:32:50;;;;;;;23.67;3.65;;;5.80;99.90;;;;;;5113115;28;20040;-62
2023/01/10 02:35:36;;;;;;;20.65;3.38;;;5.60;99.90;;;;;;5112538;28;20039;-63
2023/01/10 02:38:22;;;;;;;16.10;3.22;;;5.70;99.90;;;;;;5111793;28;20098;-62
2023/01/10 02:41:05;;;;;;;19.15;3.00;;;5.50;99.90;;;;;;5009951;28;20054;-63
2023/01/10 02:43:40;;;;;;;19.08;3.65;;;5.40;99.90;;;;;;5010176;28;20080;-62
2023/01/10 02:46:11;;;;;;;22.65;3.63;;;5.50;99.90;;;;;;4993724;28;20165;-63
2023/01/10 02:48:37;;;;;;;17.13;3.00;;;5.50;99.90;;;;;;5010014;28;20429;-62
2023/01/10 02:51:27;;;;;;;18.80;3.17;;;5.40;99.90;;;;;;4993409;28;20129;-63
2023/01/10 02:54:06;;;;;;;18.95;3.95;;;5.60;99.90;;;;;;5009935;28;20077;-62
2023/01/10 02:56:51;;;;;;;13.38;3.05;;;5.40;99.90;;;;;;5009985;28;20096;-63
2023/01/10 02:59:44;;;;;;;23.15;3.95;;;5.50;99.90;;;;;;4993439;28;20150;-62
2023/01/10 03:02:25;;;;;;;23.25;4.20;;;5.40;99.90;;;;;;5009755;28;20163;-63
2023/01/10 03:05:15;;;;;;;23.75;3.53;;;5.60;99.90;;;;;;5010130;28;20399;-63
2023/01/10 03:08:11;;;;;;;19.52;4.20;;;5.60;99.90;;;;;;5009748;28;20141;-62
2023/01/10 03:10:57;;;;;;;18.25;3.03;;;5.60;99.90;;;;;;5009773;28;20050;-62
2023/01/10 03:13:28;;;;;;;18.20;3.30;;;5.50;99.90;;;;;;4993414;28;20069;-62
2023/01/10 03:15:56;;;;;;;22.83;3.72;;;5.70;99.90;;;;;;5009555;28;20080;-63
2023/01/10 03:18:36;;;;;;;19.60;3.90;;;5.50;99.90;;;;;;5080221;28;20184;-63
2023/01/10 03:21:05;;;;;;;23.30;3.65;;;5.80;99.90;;;;;;5113222;28;20039;-63
2023/01/10 03:23:33;;;;;;;24.45;3.33;;;5.70;99.90;;;;;;5116272;28;20363;-63
2023/01/10 03:26:00;;;;;;;19.33;4.57;;;5.80;99.90;;;;;;5116205;28;20069;-63
2023/01/10 03:28:33;;;;;;;27.45;3.00;;;5.70;99.90;;;;;;5116002;28;20043;-63
2023/01/10 03:31:05;;;;;;;13.05;2.72;;;5.70;99.90;;;;;;5116157;28;20400;-63
2023/01/10 03:33:32;;;;;;;17.48;3.28;;;5.80;99.90;;;;;;5115929;28;20035;-63
2023/01/10 03:36:32;;;;;;;23.08;3.28;;;5.70;99.90;;;;;;5116202;28;20084;-62
2023/01/10 03:39:32;;;;;;;21.67;3.53;;;5.70;99.90;;;;;;5115462;28;20509;-63
2023/01/10 03:42:16;;;;;;;22.35;4.68;;;5.90;99.90;;;;;;5116134;28;20239;-64
2023/01/10 03:44:47;;;;;;;22.35;3.45;;;6.00;99.90;;;;;;5115858;28;20036;-62
2023/01/10 03:47:16;;;;;;;23.90;4.25;;;5.80;99.90;;;;;;5115720;28;20111;-62
2023/01/10 03:49:46;;;;;;;21.33;3.83;;;6.00;99.90;;;;;;5097652;28;20175;-62
2023/01/10 03:52:15;;;;;;;24.05;3.95;;;6.00;99.90;;;;;;5115655;28;20043;-62
2023/01/10 03:54:42;;;;;;;22.98;3.35;;;6.10;99.90;;;;;;5115701;28;20039;-62
2023/01/10 03:57:15;;;;;;;20.63;3.53;;;6.00;99.90;;;;;;5115640;28;20065;-63
2023/01/10 03:59:40;;;;;;;17.85;4.05;;;6.00;99.90;;;;;;5115483;28;20035;-63
2023/01/10 04:02:06;;;;;;;24.70;3.58;;;6.20;99.90;;;;;;5115419;28;20055;-63
2023/01/10 04:04:31;;;;;;;17.08;2.85;;;5.90;99.90;;;;;;5115628;28;20032;-63
2023/01/10 04:06:57;;;;;;;19.85;3.40;;;6.00;99.90;;;;;;5115464;28;20028;-62
2023/01/10 04:09:23;;;;;;;21.73;4.10;;;6.10;99.90;;;;;;5115335;28;20043;-62
2023/01/10 04:11:48;;;;;;;22.52;3.95;;;6.00;99.90;;;;;;5115354;28;20567;-62
2023/01/10 04:14:14;;;;;;;21.00;3.50;;;5.80;99.90;;;;;;5115195;28;20481;-62
2023/01/10 04:16:40;;;;;;;22.40;3.35;;;6.00;99.90;;;;;;5115398;28;20043;-62
2023/01/10 04:19:05;;;;;;;18.80;3.55;;;5.80;99.90;;;;;;5115227;28;20071;-62
2023/01/10 04:21:31;;;;;;;20.27;3.28;;;5.80;99.90;;;;;;5115304;28;20043;-62
2023/01/10 04:23:56;;;;;;;17.20;3.17;;;6.00;99.90;;;;;;5115404;28;20054;-63
2023/01/10 04:26:23;;;;;;;16.05;3.58;;;6.00;99.90;;;;;;5115015;28;20389;-62
2023/01/10 04:28:49;;;;;;;15.75;3.30;;;5.90;99.90;;;;;;5114860;28;20051;-63
2023/01/10 04:31:14;;;;;;;18.17;3.70;;;5.90;99.90;;;;;;5114698;28;20043;-62
2023/01/10 04:33:40;;;;;;;19.13;3.05;;;6.00;99.90;;;;;;5114422;28;20039;-63
2023/01/10 04:36:06;;;;;;;20.02;4.18;;;5.90;99.90;;;;;;5114820;28;20092;-62
2023/01/10 04:38:32;;;;;;;18.52;3.15;;;5.80;99.90;;;;;;5114418;28;20512;-62
2023/01/10 04:40:57;;;;;;;20.30;3.55;;;5.90;99.90;;;;;;5114653;28;20047;-62
2023/01/10 04:43:24;;;;;;;20.27;3.50;;;5.80;99.90;;;;;;5114657;28;20031;-63
2023/01/10 04:45:50;;;;;;;21.85;2.83;;;6.00;99.90;;;;;;5114579;28;20066;-63
2023/01/10 04:48:16;;;;;;;19.58;3.17;;;5.80;99.90;;;;;;5095923;28;20079;-62
2023/01/10 04:50:42;;;;;;;19.50;3.83;;;6.10;99.90;;;;;;5114443;28;20035;-63
2023/01/10 04:53:07;;;;;;;17.55;3.00;;;5.70;99.90;;;;;;5114478;28;20024;-63
2023/01/10 04:55:33;;;;;;;25.50;3.72;;;5.70;99.90;;;;;;5114452;28;20082;-62
2023/01/10 04:58:00;;;;;;;16.92;3.90;;;5.80;99.90;;;;;;5114424;28;20389;-63
2023/01/10 05:00:26;;;;;;;23.95;3.92;;;5.80;99.90;;;;;;5114550;28;20039;-63
2023/01/10 05:02:56;;;;;;;16.00;4.03;;;5.90;99.90;;;;;;5114399;28;20557;-62
2023/01/10 05:05:21;;;;;;;20.88;3.58;;;6.10;99.90;;;;;;5114149;28;20489;-63
2023/01/10 05:07:47;;;;;;;16.73;3.63;;;6.00;99.90;;;;;;5114221;28;20081;-63
2023/01/10 05:10:13;;;;;;;16.95;3.30;;;6.00;99.90;;;;;;5114037;28;20504;-62
2023/01/10 05:12:39;;;;;;;19.73;2.95;;;6.00;99.90;;;;;;5096042;28;20047;-62
2023/01/10 05:15:05;;;;;;;25.10;3.90;;;5.90;99.90;;;;;;5114073;28;20067;-62
2023/01/10 05:17:31;;;;;;;19.70;3.08;;;5.90;99.90;;;;;;5114256;28;20048;-62
2023/01/10 05:19:57;;;;;;;21.92;3.60;;;6.00;99.90;;;;;;5114370;28;20043;-62
2023/01/10 05:22:22;;;;;;;17.60;3.08;;;5.90;99.90;;;;;;5113815;28;20078;-62
2023/01/10 05:24:48;;;;;;;14.50;3.05;;;6.10;99.90;;;;;;5113813;28;20050;-63
2023/01/10 05:27:14;;;;;;;16.25;3.33;;;5.90;99.90;;;;;;5113691;28;20080;-62
2023/01/10 05:29:40;;;;;;;21.05;3.42;;;6.00;99.90;;;;;;5113904;28;20039;-63
2023/01/10 05:32:05;;;;;;;18.27;3.45;;;5.90;99.90;;;;;;5113894;28;20042;-62
2023/01/10 05:34:31;;;;;;;13.93;3.10;;;6.10;99.90;;;;;;5113770;28;20078;-62
2023/01/10 05:36:57;;;;;;;14.70;3.20;;;6.20;99.90;;;;;;5113699;28;20039;-62
2023/01/10 05:39:22;;;;;;;14.00;3.50;;;6.10;99.90;;;;;;5113214;28;20062;-63
2023/01/10 05:41:48;;;;;;;23.17;3.78;;;6.10;99.90;;;;;;5113196;28;20047;-62
2023/01/10 05:44:13;;;;;;;24.02;3.50;;;6.10;99.90;;;;;;5112571;28;20047;-62
2023/01/10 05:46:39;;;;;;;13.07;2.95;;;5.90;99.90;;;;;;5113227;28;20044;-62
2023/01/10 05:49:05;;;;;;;16.58;3.67;;;5.90;99.90;;;;;;5111996;28;20035;-62
2023/01/10 05:51:30;;;;;;;16.40;3.13;;;5.90;99.90;;;;;;5087780;28;20043;-62
2023/01/10 05:53:57;;;;;;;17.92;3.75;;;6.00;99.90;;;;;;5111024;28;20034;-62
2023/01/10 05:56:26;;;;;;;18.05;3.55;;;6.10;99.90;;;;;;5112503;28;20052;-62
2023/01/10 05:58:51;;;;;;;17.08;3.72;;;6.00;99.90;;;;;;5112673;28;20051;-62
2023/01/10 06:01:17;;;;;;;19.98;3.70;;;6.10;99.90;;;;;;5113330;28;20519;-62
2023/01/10 06:03:43;;;;;;;11.63;2.97;;;6.20;99.90;;;;;;5113212;28;20138;-62
2023/01/10 06:06:15;;;;;;;23.88;2.70;;;6.10;99.90;;;;;;5109834;27;20730;-62
2023/01/10 06:08:40;;;;;;;14.82;2.90;;;6.00;99.90;;;;;;5109605;28;20113;-63
2023/01/10 06:11:07;;;;;;;12.00;2.67;;;6.10;99.90;;;;;;5109468;28;20126;-62
2023/01/10 06:13:32;;;;;;;17.45;2.70;;;5.90;99.90;;;;;;5108390;28;20089;-62
2023/01/10 06:15:58;;;;;;;13.80;2.72;;;5.90;99.90;;;;;;5109600;28;20032;-62
2023/01/10 06:18:24;;;;;;;16.38;2.78;;;5.90;99.90;;;;;;5109371;28;20040;-62
2023/01/10 06:20:49;;;;;;;6.82;2.00;;;5.90;99.90;;;;;;5109500;28;20043;-62
2023/01/10 06:23:15;;;;;;;11.65;2.80;;;6.00;99.90;;;;;;5109407;28;20036;-62
2023/01/10 06:25:41;;;;;;;16.83;2.60;;;5.90;99.90;;;;;;5109176;28;20093;-62
2023/01/10 06:28:11;;;;;;;13.55;2.13;;;5.90;99.90;;;;;;5109161;28;20484;-63
2023/01/10 06:30:40;;;;;;;8.23;1.90;;;5.70;99.90;;;;;;5109545;28;20078;-62
2023/01/10 06:33:07;;;;;;;;;;;5.80;99.90;;;;;;5109880;28;20405;-62
2023/01/10 06:35:33;;;;;;;11.38;2.58;;;5.80;99.90;;;;;;5109368;28;19919;-62
2023/01/10 06:37:59;;;;;;;12.23;2.22;;;5.70;99.90;;;;;;5109274;28;20391;-62
2023/01/10 06:40:26;;;;;;;8.65;2.22;;;6.00;99.90;;;;;;5108906;28;20389;-63
2023/01/10 06:42:52;;;;;;;12.10;2.50;;;5.80;99.90;;;;;;5108623;28;20040;-62
2023/01/10 06:45:18;;;;;;;12.13;2.28;;;5.80;99.90;;;;;;5108731;28;20066;-62
2023/01/10 06:47:43;;;;;;;10.18;2.20;;;5.80;99.90;;;;;;5107715;28;20114;-62
2023/01/10 06:50:10;;;;;;;8.73;2.20;;;5.80;99.90;;;;;;5108527;28;20118;-62
2023/01/10 06:52:36;;;;;;;11.52;2.33;;;5.60;99.90;;;;;;5108751;28;20044;-62
2023/01/10 06:55:01;;;;;;;13.48;2.50;;;5.50;99.90;;;;;;5108919;28;20046;-62
2023/01/10 06:57:32;;;;;;;12.30;1.80;;;5.60;99.90;;;;;;5108819;28;20036;-62
2023/01/10 06:59:58;;;;;;;12.60;2.47;;;5.50;99.90;;;;;;5108589;28;20500;-62
2023/01/10 07:02:24;;;;;;;10.35;2.88;;;5.50;99.90;;;;;;5108665;28;20040;-63
2023/01/10 07:04:49;;;;;;;11.38;1.88;;;5.40;99.90;;;;;;5108316;28;20044;-62
2023/01/10 07:07:16;;;;;;;8.82;2.40;;;5.50;99.90;;;;;;5108495;28;20394;-62
2023/01/10 07:09:41;;;;;;;19.02;2.85;;;5.40;99.90;;;;;;5108686;28;20039;-62
2023/01/10 07:12:07;;;;;;;12.32;2.72;;;5.40;99.90;;;;;;5108503;28;20032;-62
2023/01/10 07:14:32;;;;;;;13.80;2.67;;;5.50;99.90;;;;;;5108165;28;20039;-63
2023/01/10 07:16:58;;;;;;;13.75;3.15;;;5.60;99.90;;;;;;5098526;28;20040;-62
2023/01/10 07:19:24;;;;;;;16.85;2.72;;;5.70;99.90;;;;;;5093688;28;20047;-62
2023/01/10 07:21:49;;;;;;;12.57;2.30;;;5.60;99.90;;;;;;5093028;28;20032;-63
2023/01/10 07:24:15;;;;;;;12.88;2.63;;;5.80;99.90;;;;;;5093629;28;20044;-63
2023/01/10 07:26:41;;;;;;;16.60;3.03;;;5.80;99.90;;;;;;5094751;28;20036;-62
2023/01/10 07:29:07;;;;;;;13.85;3.35;;;5.70;99.90;;;;;;5094193;28;20109;-63
2023/01/10 07:31:32;;;;;;;17.27;3.90;;;5.70;99.90;;;;;;5094771;28;20159;-62
2023/01/10 07:33:58;;;;;;;19.45;3.72;;;5.90;99.90;;;;;;5094459;28;20034;-62
2023/01/10 07:36:23;;;;;;;18.50;3.42;;;5.70;99.90;;;;;;5094222;28;20036;-61
2023/01/10 07:38:49;;;;;;;18.20;3.60;;;5.90;99.90;;;;;;5094153;28;20073;-61
2023/01/10 07:41:15;;;;;;;23.92;3.90;;;5.80;99.90;;;;;;5094423;28;20115;-61
2023/01/10 07:43:40;;;;;;;22.05;3.85;;;5.80;99.90;;;;;;5094154;28;20498;-62
2023/01/10 07:46:08;;;;;;;22.73;3.47;;;5.90;99.90;;;;;;5094226;28;20436;-61
2023/01/10 07:48:35;;;;;;;17.20;4.03;;;6.10;99.90;;;;;;5093962;28;20089;-61
2023/01/10 07:51:01;;;;;;;18.67;3.22;;;5.90;99.90;;;;;;5094105;28;20046;-61
2023/01/10 07:53:27;;;;;;;18.17;4.50;;;5.90;99.90;;;;;;5094216;28;20036;-61
2023/01/10 07:55:57;;;;;;;24.20;5.00;;;6.20;99.90;;;;;;5094224;28;20385;-61
2023/01/10 07:58:23;;;;;;;19.92;4.25;;;6.10;99.90;;;;;;5093988;28;20505;-61
2023/01/10 08:00:49;;;;;;;24.13;4.65;;;6.10;99.90;;;;;;5093849;28;20032;-61
2023/01/10 08:03:16;;;;;;;20.85;4.43;;;6.00;99.90;;;;;;5075874;28;20044;-61
2023/01/10 08:05:42;;;;;;;23.67;4.28;;;6.20;99.90;;;;;;5093489;28;20059;-62
2023/01/10 08:08:09;;;;;;;30.70;5.43;;;6.20;99.90;;;;;;5093858;28;20044;-61
2023/01/10 08:10:37;;;;;;;24.77;4.90;;;6.00;99.90;;;;;;5093638;28;20378;-61
2023/01/10 08:13:03;;;;;;;29.17;5.05;;;6.20;99.90;;;;;;5093805;28;20043;-61
2023/01/10 08:15:29;;;;;;;23.52;4.93;;;6.00;99.90;;;;;;5093718;28;20040;-61
2023/01/10 08:17:59;;;;;;;22.65;4.75;;;6.00;99.90;;;;;;5092492;28;20050;-61
2023/01/10 08:20:24;;;;;;;21.85;4.70;;;6.00;99.90;;;;;;5093504;28;20044;-61
2023/01/10 08:22:50;;;;;;;25.98;5.32;;;6.00;99.90;;;;;;5093482;28;20374;-62
2023/01/10 08:25:15;;;;;;;17.98;4.05;;;6.10;99.90;;;;;;5092529;28;20535;-61
2023/01/10 08:27:41;;;;;;;25.73;4.90;;;6.00;99.90;;;;;;5091923;28;20032;-61
2023/01/10 08:30:07;;;;;;;22.60;4.18;;;6.00;99.90;;;;;;5093486;28;20042;-61
2023/01/10 08:32:33;;;;;;;17.48;4.90;;;6.00;99.90;;;;;;5093211;28;20039;-61
2023/01/10 08:34:59;;;;;;;25.90;5.25;;;6.00;99.90;;;;;;5093277;28;20036;-61
2023/01/10 08:37:24;;;;;;;24.33;4.88;;;6.10;99.90;;;;;;5092245;28;20059;-61
2023/01/10 08:39:50;;;;;;;24.38;5.28;;;6.10;99.90;;;;;;5093306;28;20052;-61
2023/01/10 08:42:16;;;;;;;32.80;5.63;;;6.10;99.90;;;;;;5093395;28;20127;-61
2023/01/10 08:44:42;;;;;;;25.67;5.20;;;6.10;99.90;;;;;;5092249;28;20048;-61
2023/01/10 08:47:07;;;;;;;35.60;5.68;;;5.90;99.90;;;;;;5093173;28;20093;-61
2023/01/10 08:49:33;;;;;;;32.42;5.50;;;5.90;99.90;;;;;;5092523;28;20538;-61
2023/01/10 08:52:03;;;;;;;28.70;5.38;;;6.10;99.90;;;;;;5093177;28;20032;-61
2023/01/10 08:54:29;;;;;;;29.58;5.00;;;6.20;99.90;;;;;;5091678;28;20054;-61
2023/01/10 08:56:54;;;;;;;26.65;4.63;;;6.10;99.90;;;;;;5092841;28;20044;-61
2023/01/10 08:59:20;;;;;;;28.30;4.20;;;6.20;99.90;;;;;;5092793;28;20048;-61
2023/01/10 09:01:46;;;;;;;26.65;5.43;;;6.30;99.90;;;;;;5092705;28;20061;-61
2023/01/10 09:04:11;;;;;;;28.27;5.80;;;6.40;99.90;;;;;;5092335;28;20051;-61
2023/01/10 09:06:37;;;;;;;21.13;5.20;;;6.30;99.90;;;;;;5092884;28;20093;-62
2023/01/10 09:09:03;;;;;;;26.33;4.35;;;6.20;99.90;;;;;;5092711;28;20032;-61
2023/01/10 09:11:28;;;;;;;34.75;4.70;;;6.20;99.90;;;;;;5092475;28;20420;-62
2023/01/10 09:13:54;;;;;;;24.92;4.28;;;6.20;99.90;;;;;;5092583;28;20036;-61
2023/01/10 09:16:20;;;;;;;28.00;4.97;;;6.30;99.90;;;;;;5092273;28;20060;-61
2023/01/10 09:18:46;;;;;;;21.13;4.68;;;6.30;99.90;;;;;;5092372;28;20032;-61
2023/01/10 09:21:11;;;;;;;29.70;5.47;;;6.30;99.90;;;;;;5092643;28;20032;-61
2023/01/10 09:23:38;;;;;;;31.45;5.38;;;6.30;99.90;;;;;;5092550;28;20047;-62
2023/01/10 09:26:04;;;;;;;25.20;4.28;;;6.40;99.90;;;;;;5092348;28;20066;-61
2023/01/10 09:28:30;;;;;;;28.98;4.65;;;6.30;99.90;;;;;;5092326;28;20044;-61
2023/01/10 09:30:56;;;;;;;32.50;4.22;;;6.40;99.90;;;;;;5092159;28;20040;-61
2023/01/10 09:33:21;;;;;;;23.75;4.45;;;6.40;99.90;;;;;;5092439;28;20043;-61
2023/01/10 09:35:47;;;;;;;18.92;4.30;;;6.50;99.90;;;;;;5092615;28;20048;-61
2023/01/10 09:38:15;;;;;;;21.08;4.18;;;6.60;99.90;;;;;;5092327;28;20058;-61
2023/01/10 09:40:50;;;;;;;18.52;3.88;;;6.50;99.90;;;;;;5092022;28;20082;-61
2023/01/10 09:43:36;;;;;;;17.95;3.90;;;6.50;99.90;;;;;;5092190;28;20127;-61
2023/01/10 09:46:34;;;;;;;26.77;4.05;;;6.60;99.90;;;;;;5092201;28;20040;-61
2023/01/10 09:49:09;;;;;;;18.73;4.20;;;6.70;99.90;;;;;;5049540;28;20053;-61
2023/01/10 09:51:41;;;;;;;23.88;4.50;;;6.60;99.90;;;;;;5049559;28;20191;-61
2023/01/10 09:54:27;;;;;;;18.83;4.40;;;6.70;99.90;;;;;;5049580;28;20415;-61
2023/01/10 09:56:54;;;;;;;18.65;4.30;;;6.70;99.90;;;;;;5049591;28;20119;-62
2023/01/10 09:59:24;;;;;;;24.15;5.50;;;6.80;99.90;;;;;;5049492;28;20525;-61
2023/01/10 10:01:59;;;;;;;24.98;3.92;;;6.90;99.90;;;;;;5049509;28;20037;-62
2023/01/10 10:04:31;;;;;;;24.50;4.32;;;6.90;99.90;;;;;;5065657;28;20487;-62
2023/01/10 10:06:56;;;;;;;22.40;4.25;;;6.90;99.90;;;;;;5049738;28;20560;-61
2023/01/10 10:09:28;;;;;;;22.55;4.45;;;6.90;99.90;;;;;;5049505;28;20119;-62
2023/01/10 10:12:05;;;;;;;28.83;5.50;;;7.00;99.90;;;;;;5066003;28;20175;-62
2023/01/10 10:14:44;;;;;;;31.08;5.10;;;7.00;99.90;;;;;;5049313;28;20041;-61
2023/01/10 10:17:26;;;;;;;20.33;3.80;;;7.00;99.90;;;;;;5049277;28;20120;-61
2023/01/10 10:20:06;;;;;;;21.52;4.40;;;7.10;99.90;;;;;;5049350;28;20098;-61
2023/01/10 10:22:38;;;;;;;23.20;4.90;;;7.10;99.90;;;;;;5049317;28;20048;-61
2023/01/10 10:25:18;;;;;;;35.15;5.43;;;7.10;99.90;;;;;;5078863;28;20185;-62
2023/01/10 10:28:12;;;;;;;17.75;5.30;;;7.10;99.90;;;;;;5091530;28;20047;-62
2023/01/10 10:31:02;;;;;;;23.15;4.93;;;7.10;99.90;;;;;;5091710;28;20051;-61
2023/01/10 10:33:53;;;;;;;26.25;4.95;;;7.20;99.90;;;;;;5091521;28;20055;-60
2023/01/10 10:36:22;;;;;;;24.02;5.10;;;7.10;99.90;;;;;;5091833;28;20043;-62
2023/01/10 10:38:50;;;;;;;22.38;4.90;;;7.20;99.90;;;;;;5091863;28;20044;-61
2023/01/10 10:41:37;;;;;;;19.50;5.00;;;7.20;99.90;;;;;;5091577;28;20494;-61
2023/01/10 10:44:30;;;;;;;26.52;4.95;;;7.10;99.90;;;;;;5091626;28;20044;-61
2023/01/10 10:46:58;;;;;;;21.85;5.10;;;7.10;99.90;;;;;;5091586;28;20036;-61
2023/01/10 10:49:31;;;;;;;23.23;3.70;;;7.20;99.90;;;;;;5091463;28;20486;-61
2023/01/10 10:51:58;;;;;;;23.73;4.50;;;7.20;99.90;;;;;;5093326;28;20036;-62
2023/01/10 10:54:24;;;;;;;26.58;4.05;;;7.20;99.90;;;;;;5095501;28;20040;-61
2023/01/10 10:56:53;;;;;;;21.92;4.68;;;7.30;99.90;;;;;;5095286;28;20145;-61
2023/01/10 10:59:21;;;;;;;21.25;4.10;;;7.30;99.90;;;;;;5095306;28;20079;-61
2023/01/10 11:01:49;;;;;;;20.02;4.13;;;7.30;99.90;;;;;;5093985;28;20127;-61
2023/01/10 11:04:20;;;;;;;18.35;4.10;;;7.30;99.90;;;;;;5094818;28;20568;-61
2023/01/10 11:06:49;;;;;;;28.35;4.63;;;7.40;99.90;;;;;;5094786;28;20383;-61
2023/01/10 11:09:22;;;;;;;22.27;4.75;;;7.40;99.90;;;;;;5094219;28;20094;-61
2023/01/10 11:11:53;;;;;;;17.08;4.47;;;7.40;99.90;;;;;;5094937;28;20043;-61
2023/01/10 11:14:40;;;;;;;30.55;6.05;;;7.40;99.90;;;;;;5094864;28;20083;-61
2023/01/10 11:17:19;;;;;;;22.70;4.88;;;7.40;99.90;;;;;;5094733;28;20115;-61
2023/01/10 11:20:01;;;;;;;25.65;5.00;;;7.40;99.90;;;;;;5095222;28;20047;-62
2023/01/10 11:22:31;;;;;;;28.98;6.43;;;7.50;99.90;;;;;;5094872;28;20063;-61
2023/01/10 11:25:01;;;;;;;29.05;7.10;;;7.50;99.90;;;;;;5094553;28;20028;-61
2023/01/10 11:27:31;;;;;;;30.08;6.75;;;7.40;99.90;;;;;;5093918;28;20395;-62
2023/01/10 11:30:07;;;;;;;21.70;6.43;;;7.50;99.90;;;;;;5094514;28;20047;-61
2023/01/10 11:32:37;;;;;;;28.40;8.45;;;7.50;99.90;;;;;;5094653;28;20089;-61
2023/01/10 11:35:44;;;;;;;27.77;7.68;;;7.50;99.90;;;;;;5094593;28;20040;-61
2023/01/10 11:38:15;;;;;;;31.80;6.95;;;7.40;99.90;;;;;;5092113;28;20058;-62
2023/01/10 11:41:11;;;;;;;25.45;7.15;;;7.50;99.90;;;;;;5094375;28;20044;-61
2023/01/10 11:43:38;;;;;;;29.25;7.50;;;7.40;99.90;;;;;;5094358;28;20048;-61
2023/01/10 11:46:15;;;;;;;25.17;7.10;;;7.40;99.90;;;;;;5094118;28;20499;-61
2023/01/10 11:49:05;;;;;;;33.00;7.95;;;7.50;99.90;;;;;;5094223;28;20044;-62
2023/01/10 11:51:52;;;;;;;21.50;7.43;;;7.50;99.90;;;;;;5094026;28;20386;-61
2023/01/10 11:54:27;;;;;;;31.42;7.65;;;7.50;99.90;;;;;;5093673;28;20496;-61
2023/01/10 11:57:05;;;;;;;34.22;7.55;;;7.40;99.90;;;;;;5094069;28;20103;-62
2023/01/10 11:59:31;;;;;;;33.30;8.07;;;7.40;99.90;;;;;;5094091;28;20048;-61
2023/01/10 12:02:14;;;;;;;32.13;7.90;;;7.40;99.90;;;;;;5093938;28;20044;-61
2023/01/10 12:04:43;;;;;;;32.75;8.85;;;7.50;99.90;;;;;;5093637;28;20050;-62
2023/01/10 12:07:11;;;;;;;28.75;7.32;;;7.40;99.90;;;;;;5093676;28;20082;-62
2023/01/10 12:09:52;;;;;;;35.25;7.40;;;7.40;99.90;;;;;;5093731;28;20094;-62
2023/01/10 12:12:20;;;;;;;32.47;7.28;;;7.50;99.90;;;;;;5093669;28;20535;-61
2023/01/10 12:14:46;;;;;;;34.05;7.70;;;7.40;99.90;;;;;;5093692;28;20043;-61
2023/01/10 12:17:23;;;;;;;27.85;7.75;;;7.40;99.90;;;;;;5093622;28;20044;-61
2023/01/10 12:19:52;;;;;;;22.42;6.75;;;7.40;99.90;;;;;;5093566;28;20075;-61
2023/01/10 12:22:18;;;;;;;;;;;7.40;99.90;;;;;;5094094;28;20086;-62
2023/01/10 12:24:48;;;;;;;25.55;6.50;;;7.40;99.90;;;;;;5093529;28;20002;-62
2023/01/10 12:27:16;;;;;;;24.65;6.65;;;7.30;99.90;;;;;;5093380;28;20032;-62
2023/01/10 12:29:48;;;;;;;32.05;6.70;;;7.40;99.90;;;;;;5093438;28;20036;-62
2023/01/10 12:32:21;;;;;;;33.47;7.90;;;7.90;99.90;;;;;;5093314;28;20085;-61
2023/01/10 12:34:59;;;;;;;26.90;7.90;;;7.30;99.90;;;;;;5093209;28;20043;-61
2023/01/10 12:37:44;;;;;;;27.63;6.40;;;7.30;99.90;;;;;;5093577;28;20055;-62
2023/01/10 12:40:28;;;;;;;27.00;7.15;;;7.40;99.90;;;;;;5093160;28;20093;-62
2023/01/10 12:45:51;;;;;;;21.10;7.32;;;7.30;99.90;;;;;;5093150;28;20097;-62
2023/01/10 12:48:34;;;;;;;24.58;7.40;;;7.30;99.90;;;;;;5093285;28;20105;-61
2023/01/10 12:51:05;;;;;;;30.95;6.75;;;7.40;99.90;;;;;;5091801;28;20060;-62
2023/01/10 12:54:00;;;;;;;28.80;7.85;;;7.20;99.90;;;;;;5088363;28;20427;-61
2023/01/10 12:56:27;;;;;;;23.33;7.13;;;7.20;99.90;;;;;;5093044;28;20047;-62
2023/01/10 12:59:09;;;;;;;29.83;7.05;;;7.30;99.90;;;;;;5092818;28;20088;-61
2023/01/10 13:01:39;;;;;;;35.40;7.43;;;7.20;99.90;;;;;;5091731;28;20389;-61
2023/01/10 13:04:09;;;;;;;28.48;6.35;;;7.20;99.90;;;;;;5092786;28;20051;-61
2023/01/10 13:06:39;;;;;;;31.50;7.57;;;7.30;99.90;;;;;;5092455;28;20376;-61
2023/01/10 13:09:26;;;;;;;32.28;8.05;;;7.20;99.90;;;;;;5092590;28;20051;-62
2023/01/10 13:12:16;;;;;;;30.58;6.25;;;7.20;99.90;;;;;;5090528;28;20052;-62